Time;durP1;ratioP1;P1;durP2;ratioP2;P2;SDS_P1;SDS_P2;PMS_P1;PMS_P2;Temp;Humidity;BMP_temperature;BMP_pressure;BME280_temperature;BME280_humidity;BME280_pressure;Samples;Min_cycle;Max_cycle;Signal;HPM_P1;HPM_P2
2023/07/04 02:20:31;;;;;;;1.80;1.38;;;20.70;99.90;;;;;;5006513;28;20120;-39
2023/07/04 02:22:56;;;;;;;2.03;1.00;;;20.60;99.90;;;;;;5013323;28;20029;-38
2023/07/04 02:25:22;;;;;;;2.05;1.40;;;20.70;99.90;;;;;;5012559;28;20061;-40
2023/07/04 02:27:47;;;;;;;2.47;1.35;;;20.70;99.90;;;;;;5013137;28;20080;-38
2023/07/04 02:30:13;;;;;;;2.17;1.27;;;20.70;99.90;;;;;;5013424;28;20022;-39
2023/07/04 02:32:42;;;;;;;1.50;1.13;;;20.70;99.90;;;;;;4995731;28;20022;-38
2023/07/04 02:35:08;;;;;;;3.35;1.20;;;20.60;99.90;;;;;;5013071;28;20029;-39
2023/07/04 02:37:33;;;;;;;1.73;1.10;;;20.60;99.90;;;;;;5013167;28;20481;-39
2023/07/04 02:39:59;;;;;;;1.40;1.10;;;20.60;99.90;;;;;;5012801;28;20060;-41
2023/07/04 02:42:25;;;;;;;1.45;1.20;;;20.60;99.90;;;;;;4995334;28;20501;-39
2023/07/04 02:44:51;;;;;;;2.92;1.40;;;20.70;99.90;;;;;;5012824;28;20040;-39
2023/07/04 02:47:18;;;;;;;2.80;1.40;;;20.60;99.90;;;;;;5013296;28;20045;-39
2023/07/04 02:49:46;;;;;;;2.00;1.40;;;20.60;99.90;;;;;;5012726;28;20021;-39
2023/07/04 02:52:12;;;;;;;2.30;1.35;;;20.60;99.90;;;;;;5013790;28;20022;-38
2023/07/04 02:54:38;;;;;;;3.50;1.63;;;20.60;99.90;;;;;;5012642;28;20385;-39
2023/07/04 02:57:04;;;;;;;2.95;1.42;;;20.70;99.90;;;;;;5012888;28;20030;-38
2023/07/04 02:59:30;;;;;;;2.10;1.42;;;20.60;99.90;;;;;;5012778;28;20041;-36
2023/07/04 03:01:55;;;;;;;2.17;1.00;;;20.60;99.90;;;;;;5013289;28;20026;-37
2023/07/04 03:04:21;;;;;;;2.75;1.40;;;20.60;99.90;;;;;;5012584;28;20381;-39
2023/07/04 03:06:46;;;;;;;3.40;1.30;;;20.60;99.90;;;;;;5012361;28;20034;-39
2023/07/04 03:09:12;;;;;;;1.45;1.17;;;20.70;99.90;;;;;;5012297;28;20050;-39
2023/07/04 03:11:38;;;;;;;2.78;1.58;;;20.60;99.90;;;;;;5012505;28;20044;-38
2023/07/04 03:14:03;;;;;;;2.50;1.27;;;20.60;99.90;;;;;;5012265;28;20076;-41
2023/07/04 03:16:29;;;;;;;3.20;1.30;;;20.60;99.90;;;;;;5012380;28;20448;-39
2023/07/04 03:18:54;;;;;;;1.95;1.30;;;20.60;99.90;;;;;;5011955;28;20029;-40
2023/07/04 03:21:21;;;;;;;2.03;1.35;;;20.60;99.90;;;;;;5012171;28;20038;-38
2023/07/04 03:23:46;;;;;;;2.08;1.35;;;20.60;99.90;;;;;;5012531;28;20026;-39
2023/07/04 03:26:12;;;;;;;3.88;1.30;;;20.60;99.90;;;;;;5012119;28;20642;-38
2023/07/04 03:28:38;;;;;;;1.90;1.30;;;20.60;99.90;;;;;;5012015;28;20065;-39
2023/07/04 03:31:04;;;;;;;3.47;1.15;;;20.60;99.90;;;;;;5011961;28;20022;-42
2023/07/04 03:33:30;;;;;;;1.98;1.10;;;20.60;99.90;;;;;;5011991;28;20156;-38
2023/07/04 03:35:57;;;;;;;2.10;1.13;;;20.60;99.90;;;;;;5011026;28;20030;-38
2023/07/04 03:38:23;;;;;;;1.98;1.30;;;20.60;99.90;;;;;;5011925;28;20022;-36
2023/07/04 03:40:49;;;;;;;2.00;1.33;;;20.60;99.90;;;;;;5011704;28;20138;-41
2023/07/04 03:43:15;;;;;;;1.73;1.13;;;20.60;99.90;;;;;;5011796;28;20097;-39
2023/07/04 03:45:44;;;;;;;1.58;1.15;;;20.60;99.90;;;;;;5011780;28;20018;-39
2023/07/04 03:48:10;;;;;;;2.05;1.30;;;20.60;99.90;;;;;;5011719;28;20069;-39
2023/07/04 03:50:35;;;;;;;1.50;1.05;;;20.60;99.90;;;;;;5011469;28;20493;-39
2023/07/04 03:53:01;;;;;;;2.00;1.10;;;20.60;99.90;;;;;;5011992;28;20026;-40
2023/07/04 03:55:26;;;;;;;2.05;1.20;;;20.60;99.90;;;;;;5011531;28;20034;-39
2023/07/04 03:57:52;;;;;;;2.63;1.40;;;20.60;99.90;;;;;;5011664;28;20375;-39
2023/07/04 04:00:18;;;;;;;1.73;1.10;;;20.60;99.90;;;;;;5011435;28;20055;-40
2023/07/04 04:02:43;;;;;;;2.00;1.10;;;20.60;99.90;;;;;;5011939;28;20029;-38
2023/07/04 04:05:09;;;;;;;1.60;1.10;;;20.60;99.90;;;;;;5011382;28;20037;-36
2023/07/04 04:07:35;;;;;;;1.40;1.13;;;20.60;99.90;;;;;;5011516;28;20034;-40
2023/07/04 04:10:00;;;;;;;1.70;1.27;;;20.60;99.90;;;;;;5011283;28;20022;-39
2023/07/04 04:12:26;;;;;;;1.60;0.98;;;20.60;99.90;;;;;;5011480;28;20033;-37
2023/07/04 04:14:52;;;;;;;2.13;1.00;;;20.60;99.90;;;;;;5011475;28;20126;-38
2023/07/04 04:17:18;;;;;;;1.60;1.10;;;20.60;99.90;;;;;;5011459;28;20080;-38
2023/07/04 04:19:44;;;;;;;2.08;1.23;;;20.60;99.90;;;;;;5010994;28;20136;-38
2023/07/04 04:22:09;;;;;;;1.25;1.00;;;20.60;99.90;;;;;;5011348;28;20525;-39
2023/07/04 04:24:37;;;;;;;2.22;1.20;;;20.60;99.90;;;;;;5011520;28;20030;-37
2023/07/04 04:27:08;;;;;;;1.90;1.20;;;20.60;99.90;;;;;;5011245;28;20153;-38
2023/07/04 04:29:34;;;;;;;1.73;1.08;;;20.60;99.90;;;;;;5011290;28;20076;-37
2023/07/04 04:32:00;;;;;;;1.75;1.10;;;20.60;99.90;;;;;;5011176;28;20049;-39
2023/07/04 04:34:26;;;;;;;2.75;1.23;;;20.60;99.90;;;;;;5011228;28;20064;-41
2023/07/04 04:36:52;;;;;;;1.85;1.10;;;20.60;99.90;;;;;;5011257;28;20022;-39
2023/07/04 04:39:18;;;;;;;1.42;1.00;;;20.60;99.90;;;;;;5011147;28;20481;-39
2023/07/04 04:41:43;;;;;;;2.00;1.30;;;20.60;99.90;;;;;;5011184;28;20045;-39
2023/07/04 04:44:09;;;;;;;3.00;1.42;;;20.60;99.90;;;;;;5011172;28;20033;-39
2023/07/04 04:46:35;;;;;;;1.65;1.15;;;20.60;99.90;;;;;;5011407;28;20085;-39
2023/07/04 04:49:03;;;;;;;1.35;1.15;;;20.60;99.90;;;;;;5014351;28;20062;-42
2023/07/04 04:51:30;;;;;;;1.58;1.00;;;20.50;99.90;;;;;;4997341;28;20029;-39
2023/07/04 04:53:57;;;;;;;1.65;1.10;;;20.60;99.90;;;;;;5015078;28;20435;-39
2023/07/04 04:56:23;;;;;;;1.15;0.90;;;20.60;99.90;;;;;;5014905;28;20052;-41
2023/07/04 04:58:48;;;;;;;2.40;1.27;;;20.60;99.90;;;;;;5014642;28;20069;-39
2023/07/04 05:01:17;;;;;;;1.55;1.02;;;20.60;99.90;;;;;;5015102;28;20053;-39
2023/07/04 05:03:43;;;;;;;2.88;1.23;;;20.60;99.90;;;;;;5015020;28;20088;-40
2023/07/04 05:06:09;;;;;;;2.65;1.50;;;20.60;99.90;;;;;;5014809;28;20109;-38
2023/07/04 05:08:35;;;;;;;2.50;1.20;;;20.60;99.90;;;;;;5014642;28;20585;-40
2023/07/04 05:11:04;;;;;;;1.75;1.00;;;20.60;99.90;;;;;;5014490;28;20030;-41
2023/07/04 05:13:31;;;;;;;2.05;1.02;;;20.60;99.90;;;;;;5014929;28;20037;-39
2023/07/04 05:16:02;;;;;;;4.82;1.27;;;20.60;99.90;;;;;;5014461;28;20085;-38
2023/07/04 05:18:28;;;;;;;3.03;1.45;;;20.60;99.90;;;;;;5014634;28;20037;-41
2023/07/04 05:21:12;;;;;;;2.00;1.20;;;20.60;99.90;;;;;;5014235;28;20036;-40
2023/07/04 05:23:40;;;;;;;3.07;1.30;;;20.50;99.90;;;;;;5014335;28;20093;-38
2023/07/04 05:26:10;;;;;;;1.10;0.93;;;20.60;99.90;;;;;;5014344;28;20030;-38
2023/07/04 05:28:36;;;;;;;1.38;1.10;;;20.60;99.90;;;;;;5014304;28;20044;-42
2023/07/04 05:31:05;;;;;;;2.20;1.40;;;20.60;99.90;;;;;;5014048;28;20030;-39
2023/07/04 05:33:32;;;;;;;2.47;1.50;;;20.60;99.90;;;;;;5014293;28;20388;-40
2023/07/04 05:36:28;;;;;;;2.20;1.35;;;20.60;99.90;;;;;;5014193;28;20494;-40
2023/07/04 05:38:57;;;;;;;1.10;1.00;;;20.50;99.90;;;;;;5013864;28;20030;-39
2023/07/04 05:41:25;;;;;;;2.90;1.20;;;20.50;99.90;;;;;;5014094;28;20025;-38
2023/07/04 05:43:51;;;;;;;2.53;1.35;;;20.50;99.90;;;;;;5014201;28;20022;-38
2023/07/04 05:46:18;;;;;;;4.63;1.60;;;20.60;99.90;;;;;;5013978;28;20034;-38
2023/07/04 05:48:44;;;;;;;2.22;1.40;;;20.60;99.90;;;;;;5014064;28;20026;-37
2023/07/04 05:51:12;;;;;;;1.67;1.10;;;20.50;99.90;;;;;;5013816;28;20508;-39
2023/07/04 05:53:40;;;;;;;3.78;1.45;;;20.50;99.90;;;;;;5013784;28;20433;-39
2023/07/04 05:56:10;;;;;;;2.03;1.10;;;20.50;99.90;;;;;;5013999;28;20028;-36
2023/07/04 05:58:38;;;;;;;2.35;1.30;;;20.50;99.90;;;;;;5013228;28;20030;-40
2023/07/04 06:01:16;;;;;;;1.92;1.27;;;20.60;99.90;;;;;;5013761;28;20041;-39
2023/07/04 06:03:43;;;;;;;3.08;1.35;;;20.60;99.90;;;;;;5013639;28;20124;-39
2023/07/04 06:06:20;;;;;;;1.77;1.13;;;20.50;99.90;;;;;;5013549;28;20018;-38
2023/07/04 06:08:46;;;;;;;1.50;1.10;;;20.50;99.90;;;;;;5013404;28;20021;-40
2023/07/04 06:11:12;;;;;;;2.38;1.25;;;20.60;99.90;;;;;;5013383;28;20033;-37
2023/07/04 06:13:38;;;;;;;4.70;1.52;;;20.50;99.90;;;;;;5013547;28;20333;-38
2023/07/04 06:16:05;;;;;;;6.43;1.25;;;20.60;99.90;;;;;;5013467;28;20104;-39
2023/07/04 06:18:30;;;;;;;4.28;1.40;;;20.60;99.90;;;;;;5013884;28;20034;-40
2023/07/04 06:21:13;;;;;;;5.75;1.60;;;20.60;99.90;;;;;;5013103;28;20026;-39
2023/07/04 06:23:39;;;;;;;2.85;1.70;;;20.60;99.90;;;;;;5013222;28;20129;-39
2023/07/04 06:26:06;;;;;;;3.42;1.60;;;20.60;99.90;;;;;;5013149;28;20060;-39
2023/07/04 06:28:33;;;;;;;6.00;1.70;;;20.60;99.90;;;;;;5013247;28;20018;-39
2023/07/04 06:31:03;;;;;;;3.95;1.50;;;20.50;99.90;;;;;;5013675;28;20493;-38
2023/07/04 06:33:29;;;;;;;2.28;1.40;;;20.60;99.90;;;;;;5013128;28;20053;-39
2023/07/04 06:35:55;;;;;;;2.55;1.33;;;20.60;99.90;;;;;;5012996;28;20100;-39
2023/07/04 06:38:21;;;;;;;3.08;1.42;;;20.50;99.90;;;;;;5013151;28;20061;-40
2023/07/04 06:40:57;;;;;;;5.13;1.45;;;20.60;99.90;;;;;;5012752;28;20037;-38
2023/07/04 06:43:25;;;;;;;1.60;1.00;;;20.60;99.90;;;;;;5004102;28;20041;-40
2023/07/04 06:45:51;;;;;;;1.95;1.27;;;20.60;99.90;;;;;;5013572;28;20052;-37
2023/07/04 06:48:17;;;;;;;2.53;1.30;;;20.50;99.90;;;;;;5012728;28;20057;-38
2023/07/04 06:50:45;;;;;;;3.78;1.73;;;20.60;99.90;;;;;;5012666;28;20068;-39
2023/07/04 06:53:11;;;;;;;3.13;1.27;;;20.50;99.90;;;;;;5012610;28;20030;-36
2023/07/04 06:55:36;;;;;;;2.42;1.15;;;20.60;99.90;;;;;;5012769;28;20041;-38
2023/07/04 06:58:04;;;;;;;2.92;1.33;;;20.60;99.90;;;;;;5012540;28;20026;-40
2023/07/04 07:00:30;;;;;;;3.25;1.42;;;20.60;99.90;;;;;;5012411;28;20030;-39
2023/07/04 07:02:55;;;;;;;4.68;1.70;;;20.60;99.90;;;;;;5012531;28;20385;-37
2023/07/04 07:05:21;;;;;;;4.50;1.50;;;20.60;99.90;;;;;;5012525;28;20038;-39
2023/07/04 07:07:46;;;;;;;3.78;1.50;;;20.60;99.90;;;;;;5012357;28;20385;-39
2023/07/04 07:10:13;;;;;;;5.13;1.88;;;20.60;99.90;;;;;;5012220;28;20060;-39
2023/07/04 07:12:38;;;;;;;2.22;1.30;;;20.60;99.90;;;;;;5012284;28;20022;-38
2023/07/04 07:15:05;;;;;;;2.60;1.42;;;20.60;99.90;;;;;;4994668;28;20558;-38
2023/07/04 07:17:32;;;;;;;3.28;1.40;;;20.60;99.90;;;;;;5012325;28;20034;-40
2023/07/04 07:19:58;;;;;;;3.42;1.30;;;20.60;99.90;;;;;;5012035;28;20040;-40
2023/07/04 07:22:24;;;;;;;2.50;1.35;;;20.60;99.90;;;;;;5012167;28;20026;-37
2023/07/04 07:24:49;;;;;;;2.33;1.73;;;20.60;99.90;;;;;;5012138;28;20026;-39
2023/07/04 07:27:15;;;;;;;3.97;1.20;;;20.60;99.90;;;;;;5012067;28;20510;-39
2023/07/04 07:29:41;;;;;;;3.33;1.30;;;20.60;99.90;;;;;;5011853;28;20109;-39
2023/07/04 07:32:07;;;;;;;2.42;1.50;;;20.60;99.90;;;;;;5012140;28;20038;-38
2023/07/04 07:34:33;;;;;;;2.33;1.30;;;20.60;99.90;;;;;;5012190;28;20030;-38
2023/07/04 07:36:59;;;;;;;2.33;1.42;;;20.60;99.90;;;;;;5012786;28;20117;-38
2023/07/04 07:39:24;;;;;;;2.10;1.20;;;20.60;99.90;;;;;;5011711;28;20026;-40
2023/07/04 07:41:50;;;;;;;2.35;1.38;;;20.60;99.90;;;;;;5011900;28;20109;-38
2023/07/04 07:44:17;;;;;;;2.35;1.23;;;20.60;99.90;;;;;;5012672;28;20026;-39
2023/07/04 07:46:44;;;;;;;2.72;1.48;;;20.60;99.90;;;;;;5012245;28;20113;-39
2023/07/04 07:49:10;;;;;;;2.92;1.30;;;20.60;99.90;;;;;;5012090;28;20109;-39
2023/07/04 07:51:37;;;;;;;2.63;1.40;;;20.60;99.90;;;;;;5011878;28;20034;-38
2023/07/04 07:54:06;;;;;;;1.90;1.20;;;20.60;99.90;;;;;;5011619;28;20385;-40
2023/07/04 07:56:41;;;;;;;2.38;1.38;;;20.60;99.90;;;;;;5011791;28;20030;-38
2023/07/04 07:59:07;;;;;;;1.48;1.08;;;20.60;99.90;;;;;;5011539;28;20355;-37
2023/07/04 08:01:33;;;;;;;4.00;1.60;;;20.60;99.90;;;;;;5011704;28;20087;-39
2023/07/04 08:04:01;;;;;;;1.35;1.05;;;20.60;99.90;;;;;;5010180;28;20030;-38
2023/07/04 08:06:29;;;;;;;1.40;1.02;;;20.60;99.90;;;;;;5012120;28;20026;-38
2023/07/04 08:08:57;;;;;;;2.20;1.25;;;20.60;99.90;;;;;;5011298;28;20030;-39
2023/07/04 08:11:25;;;;;;;8.68;2.08;;;20.60;99.90;;;;;;5011625;28;20033;-38
2023/07/04 08:13:51;;;;;;;6.38;2.42;;;20.60;99.90;;;;;;5010149;28;20022;-38
2023/07/04 08:16:19;;;;;;;7.45;2.60;;;20.60;99.90;;;;;;5011963;28;20037;-39
2023/07/04 08:18:45;;;;;;;12.00;2.75;;;20.60;99.90;;;;;;5011374;28;20484;-39
2023/07/04 08:21:11;;;;;;;8.45;2.75;;;20.60;99.90;;;;;;5011668;28;20100;-38
2023/07/04 08:23:36;;;;;;;5.10;2.25;;;20.60;99.90;;;;;;5010864;28;20049;-40
2023/07/04 08:26:02;;;;;;;5.90;2.50;;;20.60;99.90;;;;;;5011322;28;20069;-39
2023/07/04 08:28:28;;;;;;;6.93;2.38;;;20.60;99.90;;;;;;5011642;28;20072;-39
2023/07/04 08:31:03;;;;;;;9.90;2.42;;;20.60;99.90;;;;;;5012376;28;20037;-39
2023/07/04 08:33:29;;;;;;;7.25;2.70;;;20.60;99.90;;;;;;5011322;28;20033;-39
2023/07/04 08:36:02;;;;;;;12.45;2.75;;;20.60;99.90;;;;;;5011090;28;20026;-37
2023/07/04 08:38:28;;;;;;;10.68;3.30;;;20.60;99.90;;;;;;5011435;28;20034;-40
2023/07/04 08:40:55;;;;;;;9.15;2.65;;;20.60;99.90;;;;;;5011052;28;20029;-38
2023/07/04 08:43:36;;;;;;;8.73;2.65;;;20.60;99.90;;;;;;5011633;28;20382;-40
2023/07/04 08:46:06;;;;;;;11.10;3.03;;;20.70;99.90;;;;;;5011522;28;20044;-40
2023/07/04 08:48:33;;;;;;;8.30;3.13;;;20.70;99.90;;;;;;5011138;28;20033;-41
2023/07/04 08:51:01;;;;;;;5.35;2.70;;;20.70;99.90;;;;;;5010858;28;20026;-39
2023/07/04 08:53:27;;;;;;;10.18;3.45;;;20.70;99.90;;;;;;5011430;28;20034;-39
2023/07/04 08:56:08;;;;;;;7.85;2.60;;;20.70;99.90;;;;;;5011082;28;20025;-42
2023/07/04 08:58:51;;;;;;;6.95;2.53;;;20.70;99.90;;;;;;5011094;28;20503;-39
2023/07/04 09:01:30;;;;;;;8.30;2.67;;;20.70;99.90;;;;;;5010974;28;20172;-37
2023/07/04 09:04:14;;;;;;;6.65;2.90;;;20.70;99.90;;;;;;5011211;28;20371;-39
2023/07/04 09:06:49;;;;;;;6.57;2.88;;;20.70;99.90;;;;;;5011391;28;20037;-39
2023/07/04 09:09:48;;;;;;;7.38;2.95;;;20.70;99.90;;;;;;5010708;28;20029;-39
2023/07/04 09:12:13;;;;;;;11.02;2.88;;;20.70;99.90;;;;;;5010943;28;20029;-39
2023/07/04 09:14:46;;;;;;;6.25;2.53;;;20.80;99.90;;;;;;5010846;28;20026;-36
2023/07/04 09:17:22;;;;;;;8.70;2.60;;;20.80;99.90;;;;;;5010871;28;20030;-40
2023/07/04 09:19:47;;;;;;;7.35;2.90;;;20.80;99.90;;;;;;5010516;28;20632;-41
2023/07/04 09:22:14;;;;;;;5.75;2.50;;;20.80;99.90;;;;;;5010831;28;20150;-38
2023/07/04 09:24:40;;;;;;;6.90;2.80;;;20.80;99.90;;;;;;5011019;28;20025;-37
2023/07/04 09:27:07;;;;;;;3.45;2.30;;;20.80;99.90;;;;;;5010743;28;20030;-41
2023/07/04 09:29:32;;;;;;;6.90;2.53;;;20.80;99.90;;;;;;5010545;28;20029;-39
2023/07/04 09:32:00;;;;;;;5.18;2.60;;;20.80;99.90;;;;;;5010779;28;20022;-38
2023/07/04 09:34:44;;;;;;;5.63;2.55;;;20.80;99.90;;;;;;5011317;28;20026;-39
2023/07/04 09:37:14;;;;;;;6.22;2.22;;;20.80;99.90;;;;;;5014330;28;20065;-39
2023/07/04 09:39:57;;;;;;;4.05;2.10;;;20.80;99.90;;;;;;5014056;28;20034;-41
2023/07/04 09:42:40;;;;;;;7.18;2.60;;;20.80;99.90;;;;;;5006596;28;20080;-39
2023/07/04 09:45:11;;;;;;;5.45;2.67;;;20.80;99.90;;;;;;5015930;28;20015;-41
2023/07/04 09:47:44;;;;;;;6.35;2.20;;;20.80;99.90;;;;;;5013972;28;20029;-38
2023/07/04 09:50:10;;;;;;;4.97;2.42;;;20.80;99.90;;;;;;5013885;28;20032;-38
2023/07/04 09:52:35;;;;;;;5.53;2.60;;;20.80;99.90;;;;;;5014987;28;20093;-40
2023/07/04 09:55:34;;;;;;;5.72;2.38;;;20.90;99.90;;;;;;5014610;28;20030;-39
2023/07/04 09:58:23;;;;;;;6.28;2.42;;;20.80;99.90;;;;;;4971059;28;20053;-39
2023/07/04 10:01:09;;;;;;;4.45;2.20;;;20.90;99.90;;;;;;5013738;28;20037;-38
2023/07/04 10:03:39;;;;;;;6.10;2.35;;;20.90;99.90;;;;;;5013800;28;20022;-39
2023/07/04 10:06:06;;;;;;;4.70;2.55;;;20.90;99.90;;;;;;5014010;28;20042;-37
2023/07/04 10:08:49;;;;;;;5.45;2.60;;;20.90;99.90;;;;;;5014034;28;20088;-39
2023/07/04 10:11:24;;;;;;;6.47;2.60;;;20.90;99.90;;;;;;5013780;28;20044;-40
2023/07/04 10:13:59;;;;;;;5.35;2.30;;;20.90;99.90;;;;;;5013437;28;20160;-39
2023/07/04 10:16:24;;;;;;;5.47;2.95;;;20.90;99.90;;;;;;5014289;28;20022;-40
2023/07/04 10:18:50;;;;;;;4.70;2.47;;;20.90;99.90;;;;;;5013306;28;20018;-40
2023/07/04 10:21:18;;;;;;;3.78;2.67;;;20.90;99.90;;;;;;5013970;28;20037;-39
2023/07/04 10:23:44;;;;;;;4.00;2.47;;;20.90;99.90;;;;;;5013292;28;20530;-40
2023/07/04 10:26:12;;;;;;;4.60;2.60;;;20.90;99.90;;;;;;5013116;28;20054;-40
2023/07/04 10:28:38;;;;;;;3.95;2.40;;;20.90;99.90;;;;;;5013207;28;20031;-39
2023/07/04 10:31:14;;;;;;;4.72;2.28;;;20.90;99.90;;;;;;5012959;28;20038;-41
2023/07/04 10:34:01;;;;;;;5.22;2.60;;;20.90;99.90;;;;;;5013376;28;20053;-38
2023/07/04 10:36:31;;;;;;;4.22;2.45;;;20.90;99.90;;;;;;5005935;28;20030;-39
2023/07/04 10:39:03;;;;;;;5.07;2.75;;;20.90;99.90;;;;;;5012826;28;20030;-39
2023/07/04 10:41:38;;;;;;;7.47;2.75;;;20.90;99.90;;;;;;5012935;28;20374;-39
2023/07/04 10:44:09;;;;;;;5.82;2.45;;;20.90;99.90;;;;;;5012959;28;20018;-39
2023/07/04 10:46:49;;;;;;;5.47;2.70;;;20.90;99.90;;;;;;5012392;28;20025;-38
2023/07/04 10:49:21;;;;;;;7.80;2.58;;;20.90;99.90;;;;;;5012894;28;20547;-38
2023/07/04 10:51:51;;;;;;;5.30;2.75;;;20.90;99.90;;;;;;5012740;28;20367;-38
2023/07/04 10:54:18;;;;;;;6.03;2.75;;;20.90;99.90;;;;;;5011671;28;20038;-40
2023/07/04 10:56:51;;;;;;;3.78;2.40;;;20.90;99.90;;;;;;5013062;28;20021;-37
2023/07/04 10:59:26;;;;;;;5.40;2.42;;;20.90;99.90;;;;;;5012834;28;20468;-39
2023/07/04 11:02:23;;;;;;;5.22;2.40;;;20.90;99.90;;;;;;5012549;28;20068;-40
2023/07/04 11:04:50;;;;;;;5.30;2.88;;;20.90;99.90;;;;;;5009146;28;20022;-40
2023/07/04 11:07:24;;;;;;;4.50;2.50;;;20.90;99.90;;;;;;5012418;28;20124;-41
2023/07/04 11:09:57;;;;;;;5.43;2.38;;;21.00;99.90;;;;;;5013285;28;20026;-38
2023/07/04 11:12:28;;;;;;;3.70;2.47;;;20.90;99.90;;;;;;5012509;28;20080;-38
2023/07/04 11:15:22;;;;;;;5.45;2.42;;;20.90;99.90;;;;;;5011135;28;20022;-38
2023/07/04 11:17:49;;;;;;;6.25;3.03;;;21.00;99.90;;;;;;5009765;28;20038;-40
2023/07/04 11:20:22;;;;;;;6.05;2.72;;;20.90;99.90;;;;;;5011961;28;20046;-39
2023/07/04 11:22:51;;;;;;;6.03;3.30;;;21.00;99.90;;;;;;5013278;28;20087;-38
2023/07/04 11:25:32;;;;;;;12.65;2.95;;;21.00;99.90;;;;;;5012980;28;20172;-39
2023/07/04 11:28:26;;;;;;;5.32;2.90;;;21.00;99.90;;;;;;5012100;28;20064;-39
2023/07/04 11:31:07;;;;;;;7.22;3.42;;;21.00;99.90;;;;;;5011933;28;20558;-38
2023/07/04 11:33:53;;;;;;;6.45;3.03;;;21.00;99.90;;;;;;5012341;28;20033;-38
2023/07/04 11:36:45;;;;;;;9.43;3.38;;;21.00;99.90;;;;;;5012199;28;20030;-40
2023/07/04 11:39:29;;;;;;;11.32;2.97;;;21.00;99.90;;;;;;5011641;28;20101;-37
2023/07/04 11:41:55;;;;;;;5.80;2.58;;;21.00;99.50;;;;;;5012106;28;20030;-36
2023/07/04 11:44:41;;;;;;;5.90;2.30;;;21.00;99.00;;;;;;5003806;28;20541;-38
2023/07/04 11:47:10;;;;;;;4.20;2.60;;;21.10;99.00;;;;;;5011786;28;20037;-39
2023/07/04 11:49:36;;;;;;;6.13;2.58;;;21.10;99.00;;;;;;5011480;28;20022;-37
2023/07/04 11:52:25;;;;;;;6.72;2.58;;;21.10;99.00;;;;;;5011852;28;20077;-35
2023/07/04 11:54:59;;;;;;;4.05;2.60;;;21.20;99.20;;;;;;5011627;28;20018;-38
2023/07/04 11:57:59;;;;;;;3.78;2.53;;;21.10;99.20;;;;;;5011006;28;20030;-39
2023/07/04 12:00:44;;;;;;;4.68;2.53;;;21.20;99.30;;;;;;5010479;28;20386;-39
2023/07/04 12:03:16;;;;;;;4.47;2.70;;;21.20;99.30;;;;;;4997693;28;20095;-39
2023/07/04 12:05:43;;;;;;;5.35;2.97;;;21.10;99.30;;;;;;5012382;28;20026;-39
2023/07/04 12:08:16;;;;;;;5.47;2.88;;;21.20;99.40;;;;;;5011482;28;20034;-39
2023/07/04 12:10:41;;;;;;;6.65;2.78;;;21.20;99.50;;;;;;5011444;28;20056;-38
2023/07/04 12:13:08;;;;;;;5.78;2.90;;;21.20;99.50;;;;;;5011639;28;20025;-39
2023/07/04 12:15:37;;;;;;;5.00;2.47;;;21.20;99.50;;;;;;5012870;28;20034;-39
2023/07/04 12:18:23;;;;;;;5.07;2.75;;;21.20;99.60;;;;;;5012151;28;20030;-39
2023/07/04 12:20:50;;;;;;;4.38;2.60;;;21.20;99.60;;;;;;5010997;28;20056;-39
2023/07/04 12:23:16;;;;;;;4.15;2.78;;;21.20;99.70;;;;;;5011527;28;20030;-40
2023/07/04 12:25:44;;;;;;;5.35;2.42;;;21.20;99.70;;;;;;5011324;28;20041;-38
2023/07/04 12:28:11;;;;;;;4.18;2.78;;;21.20;99.70;;;;;;5011285;28;20053;-40
2023/07/04 12:30:50;;;;;;;4.95;2.80;;;21.20;99.80;;;;;;5012201;28;20033;-38
2023/07/04 12:33:24;;;;;;;4.47;2.75;;;21.20;99.80;;;;;;5012430;28;20026;-39
2023/07/04 12:35:55;;;;;;;4.22;2.50;;;21.20;99.80;;;;;;5011471;28;20129;-40
2023/07/04 12:38:29;;;;;;;5.35;2.60;;;21.20;99.80;;;;;;5011619;28;20109;-39
2023/07/04 12:40:57;;;;;;;4.75;2.97;;;21.20;99.90;;;;;;5011527;28;20026;-38
2023/07/04 12:43:30;;;;;;;7.82;3.08;;;21.20;99.90;;;;;;5011266;28;20041;-37
2023/07/04 12:46:20;;;;;;;5.43;2.90;;;21.20;99.90;;;;;;5011812;28;20052;-38
2023/07/04 12:48:47;;;;;;;4.80;2.88;;;21.20;99.90;;;;;;5011820;28;20381;-36
2023/07/04 12:51:19;;;;;;;3.47;2.63;;;21.20;99.90;;;;;;5011108;28;20041;-39
2023/07/04 12:53:46;;;;;;;4.85;2.78;;;21.20;99.90;;;;;;5011399;28;20022;-39
2023/07/04 12:56:14;;;;;;;4.50;3.00;;;21.20;99.90;;;;;;5011596;28;20062;-39
2023/07/04 12:58:44;;;;;;;4.07;2.83;;;21.20;99.90;;;;;;5011134;28;20025;-37
2023/07/04 13:01:11;;;;;;;4.70;2.60;;;21.20;99.90;;;;;;5010895;28;20029;-41
2023/07/04 13:03:40;;;;;;;4.15;2.83;;;21.20;99.90;;;;;;5011722;28;20026;-36
2023/07/04 13:06:11;;;;;;;3.22;2.20;;;21.20;99.90;;;;;;5011915;28;20028;-37
2023/07/04 13:08:45;;;;;;;5.15;3.20;;;21.20;99.90;;;;;;5012606;28;20523;-38
2023/07/04 13:11:11;;;;;;;7.53;3.05;;;21.30;99.90;;;;;;5014846;28;20032;-39
2023/07/04 13:13:39;;;;;;;3.92;2.63;;;21.30;99.90;;;;;;5015347;28;20026;-39
2023/07/04 13:16:14;;;;;;;5.70;2.95;;;21.20;99.90;;;;;;5014616;28;20054;-36
2023/07/04 13:18:43;;;;;;;3.63;2.67;;;21.20;99.90;;;;;;5014607;28;20425;-39
2023/07/04 13:21:10;;;;;;;3.45;2.70;;;21.20;99.90;;;;;;5015106;28;20473;-39
2023/07/04 13:23:38;;;;;;;5.18;3.10;;;21.30;99.90;;;;;;5014425;28;20569;-39
2023/07/04 13:26:16;;;;;;;4.35;2.55;;;21.20;99.90;;;;;;5014494;28;20034;-40
2023/07/04 13:28:48;;;;;;;4.05;2.70;;;21.20;99.90;;;;;;5014433;28;20041;-38
2023/07/04 13:31:20;;;;;;;4.53;2.80;;;21.20;99.90;;;;;;5014843;28;20393;-37
2023/07/04 13:33:48;;;;;;;3.47;2.50;;;21.20;99.90;;;;;;5014151;28;20084;-39
2023/07/04 13:36:18;;;;;;;4.15;2.58;;;21.30;99.90;;;;;;5014291;28;20478;-39
2023/07/04 13:38:44;;;;;;;3.38;2.63;;;21.20;99.90;;;;;;5014161;28;20371;-39
2023/07/04 13:41:11;;;;;;;3.53;2.70;;;21.20;99.90;;;;;;5014781;28;20030;-37
2023/07/04 13:43:38;;;;;;;3.67;2.75;;;21.30;99.90;;;;;;5014789;28;20496;-37
2023/07/04 13:46:04;;;;;;;3.90;2.70;;;21.20;99.90;;;;;;5015970;28;20045;-39
2023/07/04 13:48:30;;;;;;;4.07;2.97;;;21.30;99.90;;;;;;5015016;28;20026;-38
2023/07/04 13:50:56;;;;;;;3.60;2.75;;;21.30;99.90;;;;;;5013838;28;20037;-38
2023/07/04 13:53:22;;;;;;;3.85;2.90;;;21.30;99.90;;;;;;5013877;28;20478;-39
2023/07/04 13:55:48;;;;;;;3.50;2.70;;;21.20;99.90;;;;;;5013961;28;20022;-37
2023/07/04 13:58:14;;;;;;;4.22;2.47;;;21.30;99.90;;;;;;5015051;28;20100;-38
2023/07/04 14:00:40;;;;;;;9.40;2.63;;;21.40;98.00;;;;;;5014220;28;20026;-39
2023/07/04 14:03:06;;;;;;;5.78;2.58;;;21.40;98.40;;;;;;5013654;28;20037;-37
2023/07/04 14:05:36;;;;;;;6.50;2.88;;;21.40;98.50;;;;;;5014030;28;20592;-40
2023/07/04 14:08:02;;;;;;;5.30;3.15;;;21.40;98.60;;;;;;5013584;28;20030;-39
2023/07/04 14:10:28;;;;;;;4.50;3.05;;;21.40;98.60;;;;;;5014125;28;20025;-39
2023/07/04 14:12:54;;;;;;;6.72;3.00;;;21.40;98.70;;;;;;5015254;28;20101;-38
2023/07/04 14:15:19;;;;;;;6.25;2.75;;;21.30;98.70;;;;;;5013657;28;20022;-39
2023/07/04 14:17:45;;;;;;;2.88;2.58;;;21.30;98.80;;;;;;5014098;28;20079;-39
2023/07/04 14:20:11;;;;;;;8.32;2.88;;;21.30;98.80;;;;;;5012229;28;20037;-39
2023/07/04 14:22:37;;;;;;;5.05;2.70;;;21.30;98.90;;;;;;5014543;28;20116;-39
2023/07/04 14:25:03;;;;;;;5.22;2.80;;;21.30;98.90;;;;;;5013274;28;20030;-37
2023/07/04 14:27:29;;;;;;;5.07;2.53;;;21.30;98.90;;;;;;5013774;28;20030;-39
2023/07/04 14:29:55;;;;;;;3.80;2.45;;;21.30;99.00;;;;;;5013427;28;20504;-38
2023/07/04 14:32:21;;;;;;;5.10;2.60;;;21.30;99.00;;;;;;5014231;28;20045;-42
2023/07/04 14:34:47;;;;;;;4.03;2.63;;;21.30;99.00;;;;;;5014822;28;20025;-39
2023/07/04 14:37:12;;;;;;;5.97;2.55;;;21.30;99.10;;;;;;5013166;28;20026;-39
2023/07/04 14:39:39;;;;;;;4.40;3.00;;;21.30;99.10;;;;;;5013760;28;20088;-41
2023/07/04 14:42:05;;;;;;;5.57;2.80;;;21.30;99.10;;;;;;5014695;28;20072;-39
2023/07/04 14:44:31;;;;;;;3.60;2.40;;;21.30;99.10;;;;;;5013009;28;20042;-37
2023/07/04 14:46:56;;;;;;;5.68;2.60;;;21.30;99.20;;;;;;5012951;28;20026;-38
2023/07/04 14:49:22;;;;;;;4.57;2.40;;;21.30;99.20;;;;;;5013132;28;20022;-37
2023/07/04 14:51:48;;;;;;;4.93;2.47;;;21.30;99.20;;;;;;5013026;28;20474;-39
2023/07/04 14:54:15;;;;;;;3.45;2.35;;;21.30;99.30;;;;;;5013120;28;20033;-39
2023/07/04 14:56:42;;;;;;;3.50;2.42;;;21.20;99.30;;;;;;5013180;28;20465;-39
2023/07/04 14:59:08;;;;;;;5.63;2.20;;;21.30;99.30;;;;;;5012401;28;20030;-39
2023/07/04 15:01:34;;;;;;;3.83;2.45;;;21.30;99.30;;;;;;5012599;28;20040;-40
2023/07/04 15:04:00;;;;;;;4.20;2.53;;;21.30;99.30;;;;;;5013745;28;20037;-38
2023/07/04 15:06:28;;;;;;;3.60;2.40;;;21.30;99.40;;;;;;5012519;28;20230;-39
2023/07/04 15:08:53;;;;;;;3.03;2.40;;;21.30;99.40;;;;;;5012746;28;20018;-40
2023/07/04 15:11:20;;;;;;;3.88;2.58;;;21.30;99.40;;;;;;5012402;28;20029;-40
2023/07/04 15:13:46;;;;;;;3.05;2.10;;;21.30;99.70;;;;;;5012963;28;20024;-40
2023/07/04 15:16:12;;;;;;;2.55;2.20;;;21.30;99.40;;;;;;5013480;28;20018;-40